createdAt,value
2018-03-29T00:02:22.090Z,6.00
2018-03-29T00:04:49.529Z,6.10
2018-03-29T00:07:17.011Z,6.00
2018-03-29T00:09:45.287Z,6.00
2018-03-29T00:12:13.490Z,5.90
2018-03-29T00:14:40.948Z,6.00
2018-03-29T00:17:08.421Z,6.00
2018-03-29T00:19:35.896Z,5.90
2018-03-29T00:22:03.342Z,5.80
2018-03-29T00:24:30.802Z,5.60
2018-03-29T00:26:58.235Z,5.50
2018-03-29T00:29:25.695Z,5.40
2018-03-29T00:31:53.140Z,5.40
2018-03-29T00:34:20.583Z,3.70
2018-03-29T00:36:48.815Z,6.10
2018-03-29T00:39:16.251Z,5.50
2018-03-29T00:41:43.715Z,5.50
2018-03-29T00:44:12.031Z,5.50
2018-03-29T00:46:40.249Z,5.50
2018-03-29T00:49:08.456Z,5.50
2018-03-29T00:51:35.902Z,5.30
2018-03-29T00:54:03.363Z,5.30
2018-03-29T00:56:30.803Z,5.20
2018-03-29T00:58:58.269Z,5.10
2018-03-29T01:01:25.709Z,5.10
2018-03-29T01:03:53.193Z,5.20
2018-03-29T01:06:20.630Z,5.20
2018-03-29T01:08:48.059Z,5.20
2018-03-29T01:11:15.519Z,5.20
2018-03-29T01:13:42.982Z,5.20
2018-03-29T01:16:10.418Z,5.20
2018-03-29T01:18:38.644Z,5.10
2018-03-29T01:21:06.755Z,5.10
2018-03-29T01:23:34.262Z,5.10
2018-03-29T01:26:01.740Z,5.10
2018-03-29T01:28:29.955Z,5.20
2018-03-29T01:30:58.168Z,5.20
2018-03-29T01:33:25.639Z,5.20
2018-03-29T01:35:53.095Z,5.20
2018-03-29T01:38:20.545Z,5.20
2018-03-29T01:40:48.015Z,5.10
2018-03-29T01:43:15.455Z,5.10
2018-03-29T01:45:42.921Z,5.10
2018-03-29T01:48:10.395Z,5.10
2018-03-29T01:50:37.830Z,5.20
2018-03-29T01:53:06.147Z,5.20
2018-03-29T01:55:33.592Z,5.20
2018-03-29T01:58:01.035Z,5.20
2018-03-29T02:00:28.487Z,5.10
2018-03-29T02:02:55.928Z,5.20
2018-03-29T02:05:23.409Z,5.20
2018-03-29T02:07:50.860Z,5.20
2018-03-29T02:10:18.326Z,5.20
2018-03-29T02:12:45.828Z,5.10
2018-03-29T02:15:14.047Z,5.10
2018-03-29T02:17:41.504Z,5.10
2018-03-29T02:20:08.972Z,5.20
2018-03-29T02:22:36.443Z,5.10
2018-03-29T02:25:03.884Z,5.10
2018-03-29T02:27:31.357Z,5.10
2018-03-29T02:29:58.817Z,5.10
2018-03-29T02:32:26.265Z,5.10
2018-03-29T02:34:53.720Z,5.10
2018-03-29T02:37:21.172Z,5.10
2018-03-29T02:39:48.624Z,5.10
2018-03-29T02:42:16.096Z,5.10
2018-03-29T02:44:43.542Z,5.20
2018-03-29T02:47:11.002Z,5.20
2018-03-29T02:49:38.471Z,5.20
2018-03-29T02:52:05.931Z,5.20
2018-03-29T02:54:33.358Z,5.20
2018-03-29T02:57:00.801Z,5.30
2018-03-29T02:59:28.251Z,5.30
2018-03-29T03:01:55.718Z,5.30
2018-03-29T03:04:23.145Z,5.30
2018-03-29T03:06:50.595Z,5.30
2018-03-29T03:09:18.824Z,5.40
2018-03-29T03:11:47.023Z,5.40
2018-03-29T03:14:14.483Z,5.40
2018-03-29T03:16:41.935Z,5.40
2018-03-29T03:19:09.366Z,5.40
2018-03-29T03:21:36.848Z,5.50
2018-03-29T03:24:04.286Z,5.50
2018-03-29T03:26:31.746Z,5.50
2018-03-29T03:28:59.212Z,5.50
2018-03-29T03:31:26.655Z,5.40
2018-03-29T03:33:54.119Z,5.40
2018-03-29T03:36:21.557Z,5.40
2018-03-29T03:38:49.495Z,5.40
2018-03-29T03:41:16.955Z,5.40
2018-03-29T03:43:44.396Z,5.40
2018-03-29T03:46:11.852Z,5.30
2018-03-29T03:48:40.048Z,5.30
2018-03-29T03:51:07.516Z,5.20
2018-03-29T03:53:34.969Z,5.30
2018-03-29T03:56:02.522Z,5.30
2018-03-29T03:58:29.970Z,5.40
2018-03-29T04:00:57.404Z,5.40
2018-03-29T04:03:25.650Z,5.40
2018-03-29T04:05:53.216Z,5.40
2018-03-29T04:08:20.639Z,5.40
2018-03-29T04:10:48.100Z,5.40
2018-03-29T04:13:15.553Z,5.40
2018-03-29T04:15:43.013Z,5.40
2018-03-29T04:18:10.460Z,5.40
2018-03-29T04:20:37.932Z,5.40
2018-03-29T04:23:05.394Z,5.40
2018-03-29T04:25:32.851Z,5.40
2018-03-29T04:28:00.302Z,5.60
2018-03-29T04:30:27.773Z,5.60
2018-03-29T04:32:55.246Z,5.60
2018-03-29T04:35:22.683Z,5.60
2018-03-29T04:37:50.148Z,5.50
2018-03-29T04:40:17.625Z,5.50
2018-03-29T04:42:45.083Z,5.60
2018-03-29T04:45:13.308Z,5.60
2018-03-29T04:47:40.781Z,5.70
2018-03-29T04:50:08.208Z,5.70
2018-03-29T04:52:35.638Z,5.70
2018-03-29T04:55:03.949Z,5.70
2018-03-29T04:57:31.373Z,5.70
2018-03-29T04:59:58.837Z,5.70
2018-03-29T05:02:27.060Z,5.70
2018-03-29T05:04:55.027Z,5.70
2018-03-29T05:07:22.463Z,5.80
2018-03-29T05:09:49.928Z,5.70
2018-03-29T05:12:17.360Z,5.80
2018-03-29T05:14:44.848Z,5.80
2018-03-29T05:17:12.390Z,5.80
2018-03-29T05:19:39.814Z,5.70
2018-03-29T05:22:08.053Z,5.70
2018-03-29T05:24:35.506Z,5.70
2018-03-29T05:27:02.943Z,5.60
2018-03-29T05:29:30.410Z,5.60
2018-03-29T05:31:57.863Z,5.50
2018-03-29T05:34:25.718Z,5.50
2018-03-29T05:36:54.064Z,5.50
2018-03-29T05:39:22.272Z,5.60
2018-03-29T05:41:49.733Z,5.50
2018-03-29T05:44:17.183Z,5.60
2018-03-29T05:46:44.642Z,5.60
2018-03-29T05:49:12.104Z,5.70
2018-03-29T05:51:39.560Z,5.80
2018-03-29T05:54:07.111Z,6.30
2018-03-29T05:56:34.536Z,6.20
2018-03-29T05:59:02.771Z,5.90
2018-03-29T06:01:30.219Z,5.80
2018-03-29T06:03:58.439Z,5.90
2018-03-29T06:06:26.699Z,5.90
2018-03-29T06:08:54.172Z,5.90
2018-03-29T06:11:22.380Z,5.90
2018-03-29T06:13:55.468Z,5.90
2018-03-29T06:16:22.904Z,5.90
2018-03-29T06:18:50.373Z,6.00
2018-03-29T06:21:17.814Z,6.00
2018-03-29T06:23:46.120Z,6.20
2018-03-29T06:26:13.585Z,6.10
2018-03-29T06:28:41.134Z,6.20
2018-03-29T06:31:08.697Z,6.40
2018-03-29T06:33:36.130Z,6.40
2018-03-29T06:36:03.570Z,6.50
2018-03-29T06:38:31.792Z,6.50
2018-03-29T06:40:59.239Z,6.50
2018-03-29T06:43:26.703Z,6.60
2018-03-29T06:45:54.186Z,6.60
2018-03-29T06:48:21.642Z,6.70
2018-03-29T06:50:49.091Z,6.70
2018-03-29T06:53:16.626Z,6.80
2018-03-29T06:55:44.103Z,7.00
2018-03-29T06:58:11.577Z,7.10
2018-03-29T07:00:39.015Z,7.30
2018-03-29T07:03:07.228Z,7.40
2018-03-29T07:05:34.680Z,7.40
2018-03-29T07:08:02.125Z,7.40
2018-03-29T07:10:29.580Z,7.40
2018-03-29T07:12:57.041Z,7.40
2018-03-29T07:15:24.487Z,7.30
2018-03-29T07:17:51.935Z,7.30
2018-03-29T07:20:19.395Z,7.30
2018-03-29T07:22:46.836Z,7.30
2018-03-29T07:25:14.298Z,7.30
2018-03-29T07:27:41.760Z,7.40
2018-03-29T07:30:09.212Z,7.80
2018-03-29T07:32:36.671Z,8.10
2018-03-29T07:35:04.124Z,8.20
2018-03-29T07:37:31.575Z,8.80
2018-03-29T07:39:59.016Z,9.40
2018-03-29T07:42:26.493Z,9.60
2018-03-29T07:44:53.924Z,9.70
2018-03-29T07:47:21.399Z,9.70
2018-03-29T07:49:48.868Z,10.10
2018-03-29T07:52:16.321Z,10.50
2018-03-29T07:54:43.781Z,10.60
2018-03-29T07:57:11.259Z,10.60
2018-03-29T07:59:38.739Z,10.50
2018-03-29T08:02:06.239Z,10.40
2018-03-29T08:04:33.690Z,10.50
2018-03-29T08:07:01.139Z,10.80
2018-03-29T08:09:28.599Z,10.90
2018-03-29T08:11:56.060Z,10.50
2018-03-29T08:14:23.526Z,10.40
2018-03-29T08:16:50.971Z,10.20
2018-03-29T08:19:18.417Z,9.90
2018-03-29T08:21:46.675Z,9.70
2018-03-29T08:24:14.127Z,9.60
2018-03-29T08:26:41.564Z,9.60
2018-03-29T08:29:09.112Z,9.60
2018-03-29T08:31:36.519Z,9.60
2018-03-29T08:34:04.763Z,9.80
2018-03-29T08:36:32.235Z,9.70
2018-03-29T08:39:00.452Z,9.80
2018-03-29T08:41:28.903Z,9.70
2018-03-29T08:43:56.387Z,9.70
2018-03-29T08:46:23.823Z,9.80
2018-03-29T08:48:51.263Z,9.90
2018-03-29T08:51:19.498Z,9.90
2018-03-29T08:53:46.956Z,9.90
2018-03-29T08:56:14.411Z,9.80
2018-03-29T08:58:41.869Z,9.90
2018-03-29T09:01:09.325Z,9.90
2018-03-29T09:03:36.767Z,9.80
2018-03-29T09:06:04.319Z,9.70
2018-03-29T09:08:31.760Z,10.00
2018-03-29T09:10:59.232Z,11.00
2018-03-29T09:13:26.676Z,12.30
2018-03-29T09:15:54.890Z,14.00
2018-03-29T09:18:22.358Z,14.00
2018-03-29T09:20:49.800Z,13.90
2018-03-29T09:23:17.269Z,13.40
2018-03-29T09:25:44.732Z,12.40
2018-03-29T09:28:12.181Z,12.40
2018-03-29T09:30:39.639Z,12.50
2018-03-29T09:33:07.092Z,12.90
2018-03-29T09:35:34.563Z,13.10
2018-03-29T09:38:02.019Z,12.80
2018-03-29T09:40:29.491Z,12.70
2018-03-29T09:42:56.934Z,12.70
2018-03-29T09:45:24.403Z,12.60
2018-03-29T09:47:52.615Z,12.30
2018-03-29T09:50:20.115Z,12.00
2018-03-29T09:52:47.575Z,12.00
2018-03-29T09:55:15.070Z,11.60
2018-03-29T09:57:42.522Z,11.30
2018-03-29T10:00:10.726Z,11.00
2018-03-29T10:02:38.183Z,11.00
2018-03-29T10:05:05.661Z,11.00
2018-03-29T10:07:34.061Z,10.90
2018-03-29T10:10:01.517Z,10.90
2018-03-29T10:12:28.955Z,11.00
2018-03-29T10:14:56.427Z,11.10
2018-03-29T10:17:23.889Z,11.10
2018-03-29T10:19:51.368Z,11.10
2018-03-29T10:22:19.363Z,11.00
2018-03-29T10:24:46.812Z,10.90
2018-03-29T10:27:14.289Z,10.60
2018-03-29T10:29:41.859Z,10.20
2018-03-29T10:32:09.287Z,9.80
2018-03-29T10:34:36.734Z,9.70
2018-03-29T10:37:04.978Z,9.90
2018-03-29T10:39:32.420Z,9.90
2018-03-29T10:41:59.886Z,10.90
2018-03-29T10:44:27.368Z,12.30
2018-03-29T10:46:54.849Z,14.10
2018-03-29T10:49:22.320Z,15.80
2018-03-29T10:51:49.763Z,17.20
2018-03-29T10:54:17.233Z,17.20
2018-03-29T10:56:44.719Z,16.60
2018-03-29T10:59:12.181Z,15.70
2018-03-29T11:01:39.627Z,15.00
2018-03-29T11:04:07.112Z,14.20
2018-03-29T11:06:35.121Z,13.40
2018-03-29T11:09:02.626Z,12.80
2018-03-29T11:11:30.100Z,12.60
2018-03-29T11:13:57.606Z,12.60
2018-03-29T11:16:25.062Z,12.60
2018-03-29T11:18:52.524Z,12.50
2018-03-29T11:21:19.985Z,12.40
2018-03-29T11:23:47.454Z,12.20
2018-03-29T11:26:14.951Z,12.00
2018-03-29T11:28:43.166Z,11.80
2018-03-29T11:31:10.631Z,11.80
2018-03-29T11:33:38.104Z,11.60
2018-03-29T11:36:05.544Z,11.40
2018-03-29T11:38:33.025Z,11.20
2018-03-29T11:41:00.526Z,11.10
2018-03-29T11:43:28.731Z,11.20
2018-03-29T11:45:56.223Z,11.10
2018-03-29T11:48:24.464Z,11.10
2018-03-29T11:50:51.945Z,11.10
2018-03-29T11:53:19.398Z,11.00
2018-03-29T11:55:46.887Z,10.80
2018-03-29T11:58:14.334Z,10.80
2018-03-29T12:00:41.813Z,11.10
2018-03-29T12:03:10.016Z,11.50
2018-03-29T12:05:37.493Z,11.80
2018-03-29T12:08:04.976Z,11.90
2018-03-29T12:10:32.426Z,12.20
2018-03-29T12:13:00.657Z,12.40
2018-03-29T12:15:28.123Z,12.40
2018-03-29T12:17:55.587Z,12.30
2018-03-29T12:20:23.038Z,12.10
2018-03-29T12:22:50.481Z,12.00
2018-03-29T12:25:18.012Z,11.70
2018-03-29T12:27:46.256Z,11.10
2018-03-29T12:30:14.561Z,11.00
2018-03-29T12:32:42.026Z,11.00
2018-03-29T12:35:09.485Z,10.80
2018-03-29T12:37:37.695Z,10.60
2018-03-29T12:40:05.183Z,10.50
2018-03-29T12:42:32.652Z,10.50
2018-03-29T12:45:00.144Z,10.50
2018-03-29T12:47:27.557Z,10.60
2018-03-29T12:49:55.011Z,10.70
2018-03-29T12:52:22.467Z,10.80
2018-03-29T12:55:01.962Z,11.00
2018-03-29T12:57:42.102Z,11.40
2018-03-29T13:00:10.359Z,11.60
2018-03-29T13:02:37.798Z,11.50
2018-03-29T13:05:05.255Z,11.70
2018-03-29T13:07:32.712Z,12.00
2018-03-29T13:10:00.167Z,12.00
2018-03-29T13:12:27.647Z,12.10
2018-03-29T13:14:55.902Z,12.00
2018-03-29T13:17:23.356Z,12.00
2018-03-29T13:19:50.811Z,11.90
2018-03-29T13:22:18.300Z,11.80
2018-03-29T13:24:46.526Z,11.50
2018-03-29T13:27:13.992Z,11.50
2018-03-29T13:29:41.445Z,11.30
2018-03-29T13:32:08.919Z,11.10
2018-03-29T13:34:36.460Z,10.90
2018-03-29T13:37:03.939Z,10.60
2018-03-29T13:39:31.387Z,10.50
2018-03-29T13:41:58.880Z,10.60
2018-03-29T13:44:27.096Z,10.60
2018-03-29T13:46:54.606Z,10.60
2018-03-29T13:49:22.450Z,10.60
2018-03-29T13:51:49.928Z,10.60
2018-03-29T13:54:18.247Z,10.40
2018-03-29T13:56:45.717Z,10.40
2018-03-29T13:59:13.166Z,10.20
2018-03-29T14:01:40.636Z,10.10
2018-03-29T14:04:08.091Z,10.10
2018-03-29T14:06:35.568Z,10.10
2018-03-29T14:09:03.031Z,10.10
2018-03-29T14:11:30.490Z,10.30
2018-03-29T14:13:57.991Z,10.40
2018-03-29T14:16:25.428Z,10.70
2018-03-29T14:18:53.684Z,11.10
2018-03-29T14:21:21.131Z,11.20
2018-03-29T14:23:49.339Z,11.50
2018-03-29T14:26:17.568Z,11.70
2018-03-29T14:28:45.784Z,11.90
2018-03-29T14:31:14.024Z,11.90
2018-03-29T14:33:41.497Z,11.80
2018-03-29T14:36:08.987Z,11.60
2018-03-29T14:38:37.188Z,11.50
2018-03-29T14:41:04.674Z,11.50
2018-03-29T14:43:32.123Z,11.50
2018-03-29T14:45:59.602Z,11.40
2018-03-29T14:48:27.053Z,11.30
2018-03-29T14:50:54.510Z,11.10
2018-03-29T14:53:22.023Z,11.00
2018-03-29T14:55:49.492Z,10.90
2018-03-29T14:58:16.938Z,10.60
2018-03-29T15:00:45.010Z,10.60
2018-03-29T15:03:12.464Z,10.40
2018-03-29T15:05:39.939Z,10.50
2018-03-29T15:08:07.381Z,10.60
2018-03-29T15:10:34.839Z,10.60
2018-03-29T15:13:02.314Z,10.50
2018-03-29T15:15:29.763Z,12.50
2018-03-29T15:17:58.131Z,11.00
2018-03-29T15:20:25.607Z,11.90
2018-03-29T15:22:53.887Z,11.30
2018-03-29T15:25:21.422Z,11.50
2018-03-29T15:27:48.896Z,11.50
2018-03-29T15:30:16.335Z,11.40
2018-03-29T15:32:43.799Z,11.10
2018-03-29T15:35:11.270Z,11.00
2018-03-29T15:37:38.726Z,11.00
2018-03-29T15:40:06.199Z,10.80
2018-03-29T15:42:33.667Z,10.70
2018-03-29T15:45:01.135Z,10.40
2018-03-29T15:47:29.388Z,10.40
2018-03-29T15:49:56.826Z,10.40
2018-03-29T15:52:24.312Z,10.40
2018-03-29T15:54:51.748Z,10.40
2018-03-29T15:57:19.259Z,10.30
2018-03-29T15:59:47.088Z,10.20
2018-03-29T16:02:14.534Z,9.90
2018-03-29T16:04:41.988Z,9.80
2018-03-29T16:07:09.520Z,9.80
2018-03-29T16:09:36.970Z,9.60
2018-03-29T16:12:04.444Z,9.60
2018-03-29T16:14:31.900Z,9.60
2018-03-29T16:16:59.333Z,9.60
2018-03-29T16:19:27.452Z,9.60
2018-03-29T16:21:55.704Z,9.70
2018-03-29T16:24:23.246Z,9.80
2018-03-29T16:26:50.631Z,9.80
2018-03-29T16:29:18.072Z,9.80
2018-03-29T16:31:45.535Z,9.90
2018-03-29T16:34:12.999Z,10.00
2018-03-29T16:36:40.456Z,10.10
2018-03-29T16:39:07.899Z,10.10
2018-03-29T16:41:35.386Z,10.10
2018-03-29T16:44:02.825Z,10.00
2018-03-29T16:46:30.287Z,9.90
2018-03-29T16:48:57.767Z,9.90
2018-03-29T16:51:25.206Z,9.80
2018-03-29T16:53:52.680Z,9.70
2018-03-29T16:56:20.136Z,9.50
2018-03-29T16:58:47.579Z,9.50
2018-03-29T17:01:15.055Z,9.40
2018-03-29T17:03:42.511Z,9.30
2018-03-29T17:06:09.971Z,9.20
2018-03-29T17:08:37.419Z,9.10
2018-03-29T17:11:04.862Z,9.00
2018-03-29T17:13:32.322Z,9.00
2018-03-29T17:15:59.754Z,8.90
2018-03-29T17:18:27.227Z,8.80
2018-03-29T17:20:54.672Z,8.70
2018-03-29T17:23:22.156Z,8.60
2018-03-29T17:25:49.599Z,8.60
2018-03-29T17:28:17.799Z,8.50
2018-03-29T17:30:45.253Z,8.50
2018-03-29T17:33:12.688Z,8.50
2018-03-29T17:35:40.154Z,8.40
2018-03-29T17:38:07.599Z,8.40
2018-03-29T17:40:35.086Z,8.40
2018-03-29T17:43:02.539Z,8.40
2018-03-29T17:45:29.999Z,8.40
2018-03-29T17:47:57.510Z,8.40
2018-03-29T17:50:25.778Z,8.40
2018-03-29T17:52:53.223Z,8.40
2018-03-29T17:55:20.671Z,8.40
2018-03-29T17:57:48.155Z,8.40
2018-03-29T18:00:15.641Z,8.40
2018-03-29T18:02:43.113Z,8.40
2018-03-29T18:05:10.608Z,8.40
2018-03-29T18:07:38.123Z,8.40
2018-03-29T18:10:05.582Z,8.40
2018-03-29T18:12:33.027Z,8.40
2018-03-29T18:15:00.477Z,8.40
2018-03-29T18:17:28.013Z,8.40
2018-03-29T18:19:55.453Z,8.40
2018-03-29T18:22:23.677Z,8.50
2018-03-29T18:24:51.124Z,8.40
2018-03-29T18:27:18.614Z,8.50
2018-03-29T18:29:46.057Z,8.50
2018-03-29T18:32:13.520Z,8.50
2018-03-29T18:34:41.066Z,8.50
2018-03-29T18:37:08.518Z,8.40
2018-03-29T18:39:35.984Z,8.40
2018-03-29T18:42:03.526Z,8.40
2018-03-29T18:44:30.983Z,8.40
2018-03-29T18:46:58.463Z,8.40
2018-03-29T18:49:26.118Z,8.30
2018-03-29T18:51:53.557Z,8.30
2018-03-29T18:54:21.097Z,8.20
2018-03-29T18:56:48.552Z,8.20
2018-03-29T18:59:16.000Z,8.20
2018-03-29T19:01:43.443Z,8.10
2018-03-29T19:04:11.027Z,8.10
2018-03-29T19:06:38.442Z,8.10
2018-03-29T19:09:06.684Z,8.00
2018-03-29T19:11:34.142Z,8.00
2018-03-29T19:14:01.598Z,7.90
2018-03-29T19:16:29.075Z,7.90
2018-03-29T19:18:56.614Z,7.80
2018-03-29T19:21:24.083Z,7.70
2018-03-29T19:23:51.530Z,7.70
2018-03-29T19:26:18.979Z,7.60
2018-03-29T19:28:46.438Z,7.60
2018-03-29T19:31:13.879Z,7.50
2018-03-29T19:33:41.377Z,7.50
2018-03-29T19:36:08.846Z,7.40
2018-03-29T19:38:36.289Z,7.40
2018-03-29T19:41:03.754Z,7.40
2018-03-29T19:43:31.191Z,7.30
2018-03-29T19:45:58.652Z,7.30
2018-03-29T19:48:26.083Z,7.30
2018-03-29T19:50:53.582Z,7.30
2018-03-29T19:53:21.091Z,7.30
2018-03-29T19:55:48.534Z,7.50
2018-03-29T19:58:16.770Z,7.20
2018-03-29T20:00:44.235Z,7.20
2018-03-29T20:03:11.683Z,7.20
2018-03-29T20:05:39.138Z,7.20
2018-03-29T20:08:06.598Z,7.10
2018-03-29T20:10:34.059Z,7.10
2018-03-29T20:13:01.516Z,7.00
2018-03-29T20:15:28.971Z,6.90
2018-03-29T20:17:56.423Z,6.90
2018-03-29T20:20:23.889Z,7.00
2018-03-29T20:22:51.353Z,7.00
2018-03-29T20:25:18.778Z,7.00
2018-03-29T20:27:46.256Z,6.90
2018-03-29T20:30:13.699Z,6.90
2018-03-29T20:32:41.135Z,6.90
2018-03-29T20:35:08.587Z,6.90
2018-03-29T20:37:36.091Z,6.90
2018-03-29T20:40:03.543Z,6.80
2018-03-29T20:42:30.966Z,6.80
2018-03-29T20:44:58.431Z,6.80
2018-03-29T20:47:25.901Z,6.70
2018-03-29T20:49:53.357Z,6.60
2018-03-29T20:52:20.803Z,6.70
2018-03-29T20:54:48.254Z,6.50
2018-03-29T20:57:15.707Z,6.50
2018-03-29T20:59:43.140Z,6.50
2018-03-29T21:02:10.592Z,6.40
2018-03-29T21:04:38.081Z,6.40
2018-03-29T21:07:05.514Z,6.30
2018-03-29T21:09:32.963Z,6.30
2018-03-29T21:12:00.432Z,6.30
2018-03-29T21:14:27.890Z,6.30
2018-03-29T21:16:55.340Z,6.30
2018-03-29T21:19:22.775Z,6.30
2018-03-29T21:21:50.261Z,6.30
2018-03-29T21:24:17.716Z,6.30
2018-03-29T21:26:45.162Z,6.30
2018-03-29T21:29:12.639Z,6.30
2018-03-29T21:31:40.100Z,6.20
2018-03-29T21:34:07.544Z,6.20
2018-03-29T21:36:35.005Z,6.10
2018-03-29T21:39:02.438Z,6.10
2018-03-29T21:41:29.906Z,6.10
2018-03-29T21:43:57.356Z,6.10
2018-03-29T21:46:24.800Z,6.00
2018-03-29T21:48:53.026Z,5.90
2018-03-29T21:51:20.488Z,5.80
2018-03-29T21:53:47.920Z,5.90
2018-03-29T21:56:15.383Z,5.90
2018-03-29T21:58:42.852Z,5.90
2018-03-29T22:01:10.319Z,5.90
2018-03-29T22:03:37.778Z,5.80
2018-03-29T22:06:05.238Z,5.80
2018-03-29T22:08:32.690Z,5.80
2018-03-29T22:11:00.164Z,5.80
2018-03-29T22:13:27.607Z,5.70
2018-03-29T22:15:55.081Z,5.70
2018-03-29T22:18:22.539Z,5.70
2018-03-29T22:20:50.786Z,5.60
2018-03-29T22:23:18.257Z,5.60
2018-03-29T22:25:45.681Z,5.60
2018-03-29T22:28:13.145Z,5.50
2018-03-29T22:30:40.599Z,5.50
2018-03-29T22:33:08.082Z,5.50
2018-03-29T22:35:35.531Z,5.40
2018-03-29T22:38:02.975Z,5.50
2018-03-29T22:40:30.429Z,5.50
2018-03-29T22:42:57.883Z,5.50
2018-03-29T22:45:25.351Z,5.60
2018-03-29T22:47:52.815Z,5.50
2018-03-29T22:50:20.254Z,5.50
2018-03-29T22:52:47.725Z,5.40
2018-03-29T22:55:15.177Z,5.40
2018-03-29T22:57:42.691Z,5.40
2018-03-29T23:00:10.132Z,5.50
2018-03-29T23:02:38.363Z,5.50
2018-03-29T23:05:05.828Z,5.50
2018-03-29T23:07:33.276Z,5.50
2018-03-29T23:10:00.746Z,5.50
2018-03-29T23:12:28.220Z,5.50
2018-03-29T23:14:55.676Z,5.50
2018-03-29T23:17:23.170Z,5.40
2018-03-29T23:19:50.642Z,5.40
2018-03-29T23:22:18.082Z,5.40
2018-03-29T23:24:45.544Z,5.40
2018-03-29T23:27:12.979Z,5.40
2018-03-29T23:29:41.196Z,5.20
2018-03-29T23:32:08.673Z,5.20
2018-03-29T23:34:36.132Z,5.20
2018-03-29T23:37:03.641Z,5.20
2018-03-29T23:39:31.862Z,5.10
2018-03-29T23:41:59.331Z,5.10
2018-03-29T23:44:26.762Z,5.00
2018-03-29T23:46:54.205Z,4.90
2018-03-29T23:49:21.684Z,4.90
2018-03-29T23:51:49.166Z,4.80
2018-03-29T23:54:16.619Z,4.80
2018-03-29T23:56:44.103Z,4.80
2018-03-29T23:59:12.331Z,4.80
